createdAt,value
2018-05-25T00:01:53.713Z,14.80
2018-05-25T00:06:56.936Z,14.70
2018-05-25T00:12:00.172Z,14.50
2018-05-25T00:17:04.389Z,14.40
2018-05-25T00:22:07.704Z,14.40
2018-05-25T00:27:11.318Z,14.20
2018-05-25T00:32:14.547Z,14.20
2018-05-25T00:37:17.783Z,14.10
2018-05-25T00:42:21.039Z,14.00
2018-05-25T00:47:24.663Z,13.80
2018-05-25T00:52:28.364Z,13.80
2018-05-25T00:57:31.596Z,13.80
2018-05-25T01:02:34.822Z,13.80
2018-05-25T01:07:38.056Z,13.80
2018-05-25T01:12:41.412Z,13.70
2018-05-25T01:17:44.673Z,13.60
2018-05-25T01:22:48.522Z,13.60
2018-05-25T01:27:52.152Z,13.50
2018-05-25T01:32:55.767Z,13.40
2018-05-25T01:37:59.393Z,13.40
2018-05-25T01:43:02.644Z,13.40
2018-05-25T01:48:05.975Z,13.30
2018-05-25T01:53:09.695Z,13.20
2018-05-25T01:58:13.143Z,13.20
2018-05-25T02:03:16.373Z,13.20
2018-05-25T02:08:19.613Z,13.10
2018-05-25T02:13:23.241Z,12.80
2018-05-25T02:18:26.871Z,12.70
2018-05-25T02:23:30.111Z,12.70
2018-05-25T02:28:33.386Z,12.80
2018-05-25T02:33:36.612Z,12.90
2018-05-25T02:38:39.857Z,12.70
2018-05-25T02:43:43.087Z,12.70
2018-05-25T02:48:46.718Z,12.50
2018-05-25T02:53:49.943Z,12.60
2018-05-25T02:58:53.180Z,12.60
2018-05-25T03:03:57.415Z,12.60
2018-05-25T03:09:00.652Z,12.60
2018-05-25T03:14:04.280Z,12.70
2018-05-25T03:19:07.529Z,12.70
2018-05-25T03:24:10.753Z,12.70
2018-05-25T03:29:13.999Z,12.70
2018-05-25T03:34:17.213Z,12.70
2018-05-25T03:39:20.424Z,12.50
2018-05-25T03:44:23.670Z,12.40
2018-05-25T03:49:26.997Z,12.30
2018-05-25T03:54:30.642Z,12.20
2018-05-25T03:59:46.493Z,12.20
2018-05-25T04:04:49.755Z,12.20
2018-05-25T04:09:53.028Z,12.20
2018-05-25T04:14:56.344Z,12.20
2018-05-25T04:19:59.965Z,12.30
2018-05-25T04:25:03.260Z,12.30
2018-05-25T04:30:06.989Z,12.70
2018-05-25T04:35:11.426Z,12.90
2018-05-25T04:40:15.083Z,13.20
2018-05-25T04:45:18.302Z,13.20
2018-05-25T04:50:21.630Z,13.40
2018-05-25T04:55:24.891Z,13.60
2018-05-25T05:00:28.140Z,13.80
2018-05-25T05:05:31.377Z,14.00
2018-05-25T05:10:35.001Z,14.40
2018-05-25T05:15:38.352Z,14.40
2018-05-25T05:20:41.690Z,14.70
2018-05-25T05:25:45.002Z,15.00
2018-05-25T05:30:48.639Z,15.50
2018-05-25T05:35:52.051Z,15.50
2018-05-25T05:40:55.556Z,15.60
2018-05-25T05:45:58.952Z,15.80
2018-05-25T05:51:02.602Z,16.10
2018-05-25T05:56:05.841Z,16.10
2018-05-25T06:01:09.221Z,16.30
2018-05-25T06:06:12.461Z,16.20
2018-05-25T06:11:15.737Z,16.50
2018-05-25T06:16:19.118Z,16.50
2018-05-25T06:21:22.357Z,16.70
2018-05-25T06:26:25.729Z,16.80
2018-05-25T06:31:29.563Z,17.20
2018-05-25T06:36:32.944Z,17.20
2018-05-25T06:41:36.845Z,17.70
